sensor_id;sensor_type;location;lat;lon;timestamp;P1;durP1;ratioP1;P2;durP2;ratioP2
12707;SDS011;6418;50.824;4.718;2023-04-22T00:02:13;22.33;;;14.57;;
12707;SDS011;6418;50.824;4.718;2023-04-22T00:04:41;21.50;;;13.77;;
12707;SDS011;6418;50.824;4.718;2023-04-22T00:07:10;22.30;;;14.13;;
12707;SDS011;6418;50.824;4.718;2023-04-22T00:09:37;22.53;;;15.13;;
12707;SDS011;6418;50.824;4.718;2023-04-22T00:12:04;22.60;;;15.03;;
12707;SDS011;6418;50.824;4.718;2023-04-22T00:14:32;24.03;;;15.93;;
12707;SDS011;6418;50.824;4.718;2023-04-22T00:16:59;22.20;;;15.67;;
12707;SDS011;6418;50.824;4.718;2023-04-22T00:19:28;22.80;;;15.47;;
12707;SDS011;6418;50.824;4.718;2023-04-22T00:21:56;22.80;;;15.17;;
12707;SDS011;6418;50.824;4.718;2023-04-22T00:24:22;23.33;;;15.10;;
12707;SDS011;6418;50.824;4.718;2023-04-22T00:26:49;22.83;;;15.30;;
12707;SDS011;6418;50.824;4.718;2023-04-22T00:29:16;23.17;;;14.87;;
12707;SDS011;6418;50.824;4.718;2023-04-22T00:31:44;20.90;;;14.13;;
12707;SDS011;6418;50.824;4.718;2023-04-22T00:34:10;22.63;;;14.80;;
12707;SDS011;6418;50.824;4.718;2023-04-22T00:36:39;22.40;;;15.13;;
12707;SDS011;6418;50.824;4.718;2023-04-22T00:39:06;22.57;;;14.93;;
12707;SDS011;6418;50.824;4.718;2023-04-22T00:41:33;23.33;;;14.50;;
12707;SDS011;6418;50.824;4.718;2023-04-22T00:44:00;23.57;;;15.50;;
12707;SDS011;6418;50.824;4.718;2023-04-22T00:46:28;22.47;;;14.90;;
12707;SDS011;6418;50.824;4.718;2023-04-22T00:48:55;21.03;;;14.17;;
12707;SDS011;6418;50.824;4.718;2023-04-22T00:51:22;22.90;;;14.23;;
12707;SDS011;6418;50.824;4.718;2023-04-22T00:53:51;23.53;;;14.63;;
12707;SDS011;6418;50.824;4.718;2023-04-22T00:56:18;22.57;;;14.80;;
12707;SDS011;6418;50.824;4.718;2023-04-22T00:58:46;20.93;;;14.43;;
12707;SDS011;6418;50.824;4.718;2023-04-22T01:01:14;22.03;;;14.30;;
12707;SDS011;6418;50.824;4.718;2023-04-22T01:03:41;21.70;;;14.30;;
12707;SDS011;6418;50.824;4.718;2023-04-22T01:06:08;22.23;;;13.57;;
12707;SDS011;6418;50.824;4.718;2023-04-22T01:08:35;21.27;;;14.13;;
12707;SDS011;6418;50.824;4.718;2023-04-22T01:11:04;23.37;;;14.57;;
12707;SDS011;6418;50.824;4.718;2023-04-22T01:13:31;20.47;;;14.03;;
12707;SDS011;6418;50.824;4.718;2023-04-22T01:15:59;21.27;;;14.47;;
12707;SDS011;6418;50.824;4.718;2023-04-22T01:18:27;21.33;;;14.87;;
12707;SDS011;6418;50.824;4.718;2023-04-22T01:20:55;23.17;;;15.80;;
12707;SDS011;6418;50.824;4.718;2023-04-22T01:23:23;21.67;;;14.73;;
12707;SDS011;6418;50.824;4.718;2023-04-22T01:25:50;23.80;;;14.40;;
12707;SDS011;6418;50.824;4.718;2023-04-22T01:28:17;21.77;;;14.03;;
12707;SDS011;6418;50.824;4.718;2023-04-22T01:30:44;23.17;;;15.03;;
12707;SDS011;6418;50.824;4.718;2023-04-22T01:33:14;22.13;;;14.93;;
12707;SDS011;6418;50.824;4.718;2023-04-22T01:35:41;21.40;;;14.07;;
12707;SDS011;6418;50.824;4.718;2023-04-22T01:38:09;22.83;;;14.70;;
12707;SDS011;6418;50.824;4.718;2023-04-22T01:40:38;22.13;;;14.73;;
12707;SDS011;6418;50.824;4.718;2023-04-22T01:43:05;21.77;;;14.53;;
12707;SDS011;6418;50.824;4.718;2023-04-22T01:45:32;22.13;;;14.63;;
12707;SDS011;6418;50.824;4.718;2023-04-22T01:47:59;22.00;;;14.50;;
12707;SDS011;6418;50.824;4.718;2023-04-22T01:50:26;24.53;;;15.73;;
12707;SDS011;6418;50.824;4.718;2023-04-22T01:52:53;27.60;;;18.03;;
12707;SDS011;6418;50.824;4.718;2023-04-22T01:55:21;26.00;;;17.87;;
12707;SDS011;6418;50.824;4.718;2023-04-22T01:57:50;29.30;;;18.00;;
12707;SDS011;6418;50.824;4.718;2023-04-22T02:00:17;24.57;;;16.03;;
12707;SDS011;6418;50.824;4.718;2023-04-22T02:02:44;26.70;;;16.83;;
12707;SDS011;6418;50.824;4.718;2023-04-22T02:05:11;24.67;;;16.47;;
12707;SDS011;6418;50.824;4.718;2023-04-22T02:07:38;23.90;;;15.80;;
12707;SDS011;6418;50.824;4.718;2023-04-22T02:10:06;24.77;;;16.47;;
12707;SDS011;6418;50.824;4.718;2023-04-22T02:12:33;25.40;;;16.37;;
12707;SDS011;6418;50.824;4.718;2023-04-22T02:15:02;28.20;;;18.67;;
12707;SDS011;6418;50.824;4.718;2023-04-22T02:17:30;29.57;;;19.20;;
12707;SDS011;6418;50.824;4.718;2023-04-22T02:19:58;31.43;;;19.80;;
12707;SDS011;6418;50.824;4.718;2023-04-22T02:22:25;31.03;;;19.77;;
12707;SDS011;6418;50.824;4.718;2023-04-22T02:24:53;30.20;;;20.07;;
12707;SDS011;6418;50.824;4.718;2023-04-22T02:27:20;30.47;;;20.03;;
12707;SDS011;6418;50.824;4.718;2023-04-22T02:29:47;30.70;;;19.73;;
12707;SDS011;6418;50.824;4.718;2023-04-22T02:32:16;29.80;;;20.67;;
12707;SDS011;6418;50.824;4.718;2023-04-22T02:34:43;31.20;;;20.80;;
12707;SDS011;6418;50.824;4.718;2023-04-22T02:37:11;34.70;;;22.40;;
12707;SDS011;6418;50.824;4.718;2023-04-22T02:39:38;33.20;;;21.83;;
12707;SDS011;6418;50.824;4.718;2023-04-22T02:42:05;36.70;;;24.40;;
12707;SDS011;6418;50.824;4.718;2023-04-22T02:44:32;38.30;;;24.70;;
12707;SDS011;6418;50.824;4.718;2023-04-22T02:46:59;37.60;;;25.00;;
12707;SDS011;6418;50.824;4.718;2023-04-22T02:49:29;38.77;;;25.57;;
12707;SDS011;6418;50.824;4.718;2023-04-22T02:51:56;40.53;;;26.40;;
12707;SDS011;6418;50.824;4.718;2023-04-22T02:54:23;39.27;;;25.73;;
12707;SDS011;6418;50.824;4.718;2023-04-22T02:56:50;41.23;;;27.37;;
12707;SDS011;6418;50.824;4.718;2023-04-22T02:59:17;42.83;;;28.83;;
12707;SDS011;6418;50.824;4.718;2023-04-22T03:01:44;42.50;;;29.00;;
12707;SDS011;6418;50.824;4.718;2023-04-22T03:04:11;46.10;;;30.43;;
12707;SDS011;6418;50.824;4.718;2023-04-22T03:06:39;47.57;;;32.23;;
12707;SDS011;6418;50.824;4.718;2023-04-22T03:09:06;52.20;;;33.07;;
12707;SDS011;6418;50.824;4.718;2023-04-22T03:11:33;46.43;;;30.43;;
12707;SDS011;6418;50.824;4.718;2023-04-22T03:14:00;45.87;;;29.40;;
12707;SDS011;6418;50.824;4.718;2023-04-22T03:16:27;46.47;;;30.00;;
12707;SDS011;6418;50.824;4.718;2023-04-22T03:18:54;54.50;;;33.87;;
12707;SDS011;6418;50.824;4.718;2023-04-22T03:21:21;53.67;;;34.33;;
12707;SDS011;6418;50.824;4.718;2023-04-22T03:23:49;55.10;;;35.73;;
12707;SDS011;6418;50.824;4.718;2023-04-22T03:26:16;50.93;;;34.50;;
12707;SDS011;6418;50.824;4.718;2023-04-22T03:28:44;56.17;;;36.43;;
12707;SDS011;6418;50.824;4.718;2023-04-22T03:31:11;55.23;;;35.17;;
12707;SDS011;6418;50.824;4.718;2023-04-22T03:33:38;53.03;;;32.40;;
12707;SDS011;6418;50.824;4.718;2023-04-22T03:36:05;49.20;;;32.77;;
12707;SDS011;6418;50.824;4.718;2023-04-22T03:38:33;50.33;;;32.83;;
12707;SDS011;6418;50.824;4.718;2023-04-22T03:41:01;50.67;;;32.50;;
12707;SDS011;6418;50.824;4.718;2023-04-22T03:43:28;49.20;;;31.63;;
12707;SDS011;6418;50.824;4.718;2023-04-22T03:45:55;48.50;;;32.03;;
12707;SDS011;6418;50.824;4.718;2023-04-22T03:48:22;51.73;;;32.93;;
12707;SDS011;6418;50.824;4.718;2023-04-22T03:50:49;50.50;;;32.90;;
12707;SDS011;6418;50.824;4.718;2023-04-22T03:53:16;49.13;;;32.50;;
12707;SDS011;6418;50.824;4.718;2023-04-22T03:55:43;48.73;;;31.43;;
12707;SDS011;6418;50.824;4.718;2023-04-22T03:58:12;46.27;;;30.03;;
12707;SDS011;6418;50.824;4.718;2023-04-22T04:00:39;48.10;;;30.57;;
12707;SDS011;6418;50.824;4.718;2023-04-22T04:03:06;43.93;;;29.43;;
12707;SDS011;6418;50.824;4.718;2023-04-22T04:05:33;44.73;;;28.57;;
12707;SDS011;6418;50.824;4.718;2023-04-22T04:08:00;45.53;;;29.47;;
12707;SDS011;6418;50.824;4.718;2023-04-22T04:10:27;46.33;;;29.10;;
12707;SDS011;6418;50.824;4.718;2023-04-22T04:12:54;45.77;;;29.37;;
12707;SDS011;6418;50.824;4.718;2023-04-22T04:15:23;47.53;;;28.73;;
12707;SDS011;6418;50.824;4.718;2023-04-22T04:17:51;43.33;;;28.47;;
12707;SDS011;6418;50.824;4.718;2023-04-22T04:20:20;41.03;;;27.17;;
12707;SDS011;6418;50.824;4.718;2023-04-22T04:22:47;41.47;;;27.23;;
12707;SDS011;6418;50.824;4.718;2023-04-22T04:25:14;45.73;;;30.67;;
12707;SDS011;6418;50.824;4.718;2023-04-22T04:27:42;46.50;;;29.87;;
12707;SDS011;6418;50.824;4.718;2023-04-22T04:30:09;48.07;;;31.30;;
12707;SDS011;6418;50.824;4.718;2023-04-22T04:32:38;47.43;;;31.07;;
12707;SDS011;6418;50.824;4.718;2023-04-22T04:35:07;47.53;;;29.40;;
12707;SDS011;6418;50.824;4.718;2023-04-22T04:37:37;45.30;;;29.30;;
12707;SDS011;6418;50.824;4.718;2023-04-22T04:40:05;45.70;;;29.33;;
12707;SDS011;6418;50.824;4.718;2023-04-22T04:42:34;49.83;;;30.60;;
12707;SDS011;6418;50.824;4.718;2023-04-22T04:45:01;46.00;;;30.60;;
12707;SDS011;6418;50.824;4.718;2023-04-22T04:47:28;50.17;;;32.20;;
12707;SDS011;6418;50.824;4.718;2023-04-22T04:49:59;44.83;;;29.37;;
12707;SDS011;6418;50.824;4.718;2023-04-22T04:52:28;48.67;;;30.33;;
12707;SDS011;6418;50.824;4.718;2023-04-22T04:54:56;48.37;;;30.40;;
12707;SDS011;6418;50.824;4.718;2023-04-22T04:57:23;49.23;;;31.37;;
12707;SDS011;6418;50.824;4.718;2023-04-22T04:59:50;49.37;;;31.23;;
12707;SDS011;6418;50.824;4.718;2023-04-22T05:02:17;44.03;;;29.77;;
12707;SDS011;6418;50.824;4.718;2023-04-22T05:04:44;48.17;;;30.47;;
12707;SDS011;6418;50.824;4.718;2023-04-22T05:07:13;47.07;;;30.57;;
12707;SDS011;6418;50.824;4.718;2023-04-22T05:09:40;46.57;;;29.90;;
12707;SDS011;6418;50.824;4.718;2023-04-22T05:12:07;48.83;;;31.23;;
12707;SDS011;6418;50.824;4.718;2023-04-22T05:14:34;51.07;;;32.83;;
12707;SDS011;6418;50.824;4.718;2023-04-22T05:17:01;49.40;;;31.83;;
12707;SDS011;6418;50.824;4.718;2023-04-22T05:19:28;48.67;;;31.30;;
12707;SDS011;6418;50.824;4.718;2023-04-22T05:21:55;50.07;;;32.00;;
12707;SDS011;6418;50.824;4.718;2023-04-22T05:24:23;48.90;;;33.30;;
12707;SDS011;6418;50.824;4.718;2023-04-22T05:26:50;47.20;;;31.67;;
12707;SDS011;6418;50.824;4.718;2023-04-22T05:29:17;47.50;;;30.63;;
12707;SDS011;6418;50.824;4.718;2023-04-22T05:31:44;48.97;;;31.37;;
12707;SDS011;6418;50.824;4.718;2023-04-22T05:34:11;45.20;;;30.23;;
12707;SDS011;6418;50.824;4.718;2023-04-22T05:36:38;44.60;;;29.50;;
12707;SDS011;6418;50.824;4.718;2023-04-22T05:39:05;49.90;;;33.03;;
12707;SDS011;6418;50.824;4.718;2023-04-22T05:41:34;50.17;;;33.60;;
12707;SDS011;6418;50.824;4.718;2023-04-22T05:44:01;52.93;;;35.10;;
12707;SDS011;6418;50.824;4.718;2023-04-22T05:46:28;51.27;;;33.70;;
12707;SDS011;6418;50.824;4.718;2023-04-22T05:48:55;51.27;;;34.30;;
12707;SDS011;6418;50.824;4.718;2023-04-22T05:51:22;48.93;;;32.33;;
12707;SDS011;6418;50.824;4.718;2023-04-22T05:53:49;51.37;;;33.57;;
12707;SDS011;6418;50.824;4.718;2023-04-22T05:56:16;52.47;;;35.63;;
12707;SDS011;6418;50.824;4.718;2023-04-22T05:58:44;57.47;;;38.93;;
12707;SDS011;6418;50.824;4.718;2023-04-22T06:01:11;58.33;;;38.83;;
12707;SDS011;6418;50.824;4.718;2023-04-22T06:03:38;54.13;;;37.20;;
12707;SDS011;6418;50.824;4.718;2023-04-22T06:06:06;52.87;;;37.10;;
12707;SDS011;6418;50.824;4.718;2023-04-22T06:08:33;49.37;;;36.17;;
12707;SDS011;6418;50.824;4.718;2023-04-22T06:11:00;46.83;;;34.63;;
12707;SDS011;6418;50.824;4.718;2023-04-22T06:13:27;45.03;;;33.73;;
12707;SDS011;6418;50.824;4.718;2023-04-22T06:15:56;45.33;;;32.20;;
12707;SDS011;6418;50.824;4.718;2023-04-22T06:18:23;42.80;;;29.33;;
12707;SDS011;6418;50.824;4.718;2023-04-22T06:20:50;39.73;;;28.67;;
12707;SDS011;6418;50.824;4.718;2023-04-22T06:23:17;37.87;;;27.53;;
12707;SDS011;6418;50.824;4.718;2023-04-22T06:25:44;38.40;;;27.47;;
12707;SDS011;6418;50.824;4.718;2023-04-22T06:28:12;37.07;;;27.77;;
12707;SDS011;6418;50.824;4.718;2023-04-22T06:30:39;39.33;;;28.80;;
12707;SDS011;6418;50.824;4.718;2023-04-22T06:33:07;38.53;;;28.70;;
12707;SDS011;6418;50.824;4.718;2023-04-22T06:35:34;39.80;;;29.93;;
12707;SDS011;6418;50.824;4.718;2023-04-22T06:38:01;41.60;;;31.97;;
12707;SDS011;6418;50.824;4.718;2023-04-22T06:40:28;40.07;;;32.20;;
12707;SDS011;6418;50.824;4.718;2023-04-22T06:42:55;39.37;;;31.10;;
12707;SDS011;6418;50.824;4.718;2023-04-22T06:45:23;37.70;;;28.30;;
12707;SDS011;6418;50.824;4.718;2023-04-22T06:47:51;35.57;;;26.60;;
12707;SDS011;6418;50.824;4.718;2023-04-22T06:50:19;37.97;;;27.87;;
12707;SDS011;6418;50.824;4.718;2023-04-22T06:52:47;33.97;;;26.20;;
12707;SDS011;6418;50.824;4.718;2023-04-22T06:55:13;35.03;;;25.20;;
12707;SDS011;6418;50.824;4.718;2023-04-22T06:57:41;31.47;;;23.93;;
12707;SDS011;6418;50.824;4.718;2023-04-22T07:00:08;33.57;;;25.13;;
12707;SDS011;6418;50.824;4.718;2023-04-22T07:02:35;30.43;;;21.93;;
12707;SDS011;6418;50.824;4.718;2023-04-22T07:05:02;30.33;;;23.40;;
12707;SDS011;6418;50.824;4.718;2023-04-22T07:07:31;31.47;;;22.50;;
12707;SDS011;6418;50.824;4.718;2023-04-22T07:09:58;30.57;;;23.03;;
12707;SDS011;6418;50.824;4.718;2023-04-22T07:12:25;30.07;;;22.27;;
12707;SDS011;6418;50.824;4.718;2023-04-22T07:14:52;28.00;;;21.57;;
12707;SDS011;6418;50.824;4.718;2023-04-22T07:17:20;29.93;;;21.73;;
12707;SDS011;6418;50.824;4.718;2023-04-22T07:19:47;27.27;;;20.03;;
12707;SDS011;6418;50.824;4.718;2023-04-22T07:22:14;25.60;;;18.53;;
12707;SDS011;6418;50.824;4.718;2023-04-22T07:24:42;25.50;;;18.83;;
12707;SDS011;6418;50.824;4.718;2023-04-22T07:27:09;26.20;;;18.50;;
12707;SDS011;6418;50.824;4.718;2023-04-22T07:29:36;26.57;;;18.73;;
12707;SDS011;6418;50.824;4.718;2023-04-22T07:32:03;23.83;;;17.57;;
12707;SDS011;6418;50.824;4.718;2023-04-22T07:34:30;25.03;;;18.83;;
12707;SDS011;6418;50.824;4.718;2023-04-22T07:36:57;25.23;;;18.93;;
12707;SDS011;6418;50.824;4.718;2023-04-22T07:39:24;24.33;;;18.07;;
12707;SDS011;6418;50.824;4.718;2023-04-22T07:41:53;25.27;;;18.10;;
12707;SDS011;6418;50.824;4.718;2023-04-22T07:44:21;23.70;;;18.00;;
12707;SDS011;6418;50.824;4.718;2023-04-22T07:46:48;24.57;;;17.80;;
12707;SDS011;6418;50.824;4.718;2023-04-22T07:49:15;25.00;;;18.53;;
12707;SDS011;6418;50.824;4.718;2023-04-22T07:51:44;24.90;;;18.17;;
12707;SDS011;6418;50.824;4.718;2023-04-22T07:54:11;24.37;;;16.87;;
12707;SDS011;6418;50.824;4.718;2023-04-22T07:56:38;23.10;;;16.50;;
12707;SDS011;6418;50.824;4.718;2023-04-22T07:59:06;21.67;;;15.93;;
12707;SDS011;6418;50.824;4.718;2023-04-22T08:01:33;20.67;;;15.60;;
12707;SDS011;6418;50.824;4.718;2023-04-22T08:04:00;20.30;;;15.13;;
12707;SDS011;6418;50.824;4.718;2023-04-22T08:06:27;22.80;;;15.27;;
12707;SDS011;6418;50.824;4.718;2023-04-22T08:08:54;20.10;;;14.53;;
12707;SDS011;6418;50.824;4.718;2023-04-22T08:11:21;22.23;;;15.13;;
12707;SDS011;6418;50.824;4.718;2023-04-22T08:13:49;20.97;;;15.67;;
12707;SDS011;6418;50.824;4.718;2023-04-22T08:16:17;20.30;;;13.87;;
12707;SDS011;6418;50.824;4.718;2023-04-22T08:18:44;19.40;;;13.20;;
12707;SDS011;6418;50.824;4.718;2023-04-22T08:21:11;17.00;;;11.77;;
12707;SDS011;6418;50.824;4.718;2023-04-22T08:23:38;20.57;;;12.73;;
12707;SDS011;6418;50.824;4.718;2023-04-22T08:26:05;17.33;;;11.57;;
12707;SDS011;6418;50.824;4.718;2023-04-22T08:28:35;17.33;;;12.23;;
12707;SDS011;6418;50.824;4.718;2023-04-22T08:31:03;16.97;;;11.73;;
12707;SDS011;6418;50.824;4.718;2023-04-22T08:33:32;18.23;;;12.90;;
12707;SDS011;6418;50.824;4.718;2023-04-22T08:35:58;18.80;;;13.23;;
12707;SDS011;6418;50.824;4.718;2023-04-22T08:38:27;18.50;;;12.50;;
12707;SDS011;6418;50.824;4.718;2023-04-22T08:40:54;18.60;;;12.90;;
12707;SDS011;6418;50.824;4.718;2023-04-22T08:43:22;17.77;;;12.30;;
12707;SDS011;6418;50.824;4.718;2023-04-22T08:45:51;19.57;;;12.73;;
12707;SDS011;6418;50.824;4.718;2023-04-22T08:48:18;18.00;;;12.47;;
12707;SDS011;6418;50.824;4.718;2023-04-22T08:50:47;18.17;;;12.67;;
12707;SDS011;6418;50.824;4.718;2023-04-22T08:53:15;17.43;;;12.17;;
12707;SDS011;6418;50.824;4.718;2023-04-22T08:55:42;17.57;;;11.90;;
12707;SDS011;6418;50.824;4.718;2023-04-22T08:58:10;17.57;;;11.73;;
12707;SDS011;6418;50.824;4.718;2023-04-22T09:00:38;17.17;;;11.50;;
12707;SDS011;6418;50.824;4.718;2023-04-22T09:03:07;18.97;;;11.77;;
12707;SDS011;6418;50.824;4.718;2023-04-22T09:05:35;16.63;;;11.43;;
12707;SDS011;6418;50.824;4.718;2023-04-22T09:08:06;16.63;;;11.23;;
12707;SDS011;6418;50.824;4.718;2023-04-22T09:10:35;17.70;;;11.13;;
12707;SDS011;6418;50.824;4.718;2023-04-22T09:13:02;16.70;;;10.87;;
12707;SDS011;6418;50.824;4.718;2023-04-22T09:15:30;16.17;;;10.30;;
12707;SDS011;6418;50.824;4.718;2023-04-22T09:17:57;18.20;;;10.67;;
12707;SDS011;6418;50.824;4.718;2023-04-22T09:20:24;14.70;;;9.90;;
12707;SDS011;6418;50.824;4.718;2023-04-22T09:22:52;15.27;;;9.53;;
12707;SDS011;6418;50.824;4.718;2023-04-22T09:25:22;15.37;;;9.63;;
12707;SDS011;6418;50.824;4.718;2023-04-22T09:27:50;14.10;;;9.10;;
12707;SDS011;6418;50.824;4.718;2023-04-22T09:30:18;14.77;;;9.13;;
12707;SDS011;6418;50.824;4.718;2023-04-22T09:32:53;13.60;;;8.90;;
12707;SDS011;6418;50.824;4.718;2023-04-22T09:35:27;12.23;;;7.17;;
12707;SDS011;6418;50.824;4.718;2023-04-22T09:37:55;12.57;;;7.40;;
12707;SDS011;6418;50.824;4.718;2023-04-22T09:40:24;16.07;;;8.03;;
12707;SDS011;6418;50.824;4.718;2023-04-22T09:42:52;16.23;;;7.87;;
12707;SDS011;6418;50.824;4.718;2023-04-22T09:45:24;13.50;;;8.50;;
12707;SDS011;6418;50.824;4.718;2023-04-22T09:47:52;15.87;;;8.80;;
12707;SDS011;6418;50.824;4.718;2023-04-22T09:50:20;14.83;;;9.30;;
12707;SDS011;6418;50.824;4.718;2023-04-22T09:52:52;17.40;;;9.37;;
12707;SDS011;6418;50.824;4.718;2023-04-22T09:55:21;15.77;;;9.50;;
12707;SDS011;6418;50.824;4.718;2023-04-22T09:57:52;14.73;;;9.23;;
12707;SDS011;6418;50.824;4.718;2023-04-22T10:00:20;16.73;;;9.97;;
12707;SDS011;6418;50.824;4.718;2023-04-22T10:02:48;13.93;;;9.50;;
12707;SDS011;6418;50.824;4.718;2023-04-22T10:05:15;15.63;;;9.83;;
12707;SDS011;6418;50.824;4.718;2023-04-22T10:07:43;15.40;;;9.80;;
12707;SDS011;6418;50.824;4.718;2023-04-22T10:10:10;16.13;;;10.17;;
12707;SDS011;6418;50.824;4.718;2023-04-22T10:12:37;16.00;;;10.00;;
12707;SDS011;6418;50.824;4.718;2023-04-22T10:15:06;17.10;;;11.67;;
12707;SDS011;6418;50.824;4.718;2023-04-22T10:17:35;18.30;;;10.03;;
12707;SDS011;6418;50.824;4.718;2023-04-22T10:20:05;14.67;;;9.73;;
12707;SDS011;6418;50.824;4.718;2023-04-22T10:22:38;18.80;;;10.37;;
12707;SDS011;6418;50.824;4.718;2023-04-22T10:25:10;13.97;;;9.50;;
12707;SDS011;6418;50.824;4.718;2023-04-22T10:27:38;16.63;;;10.23;;
12707;SDS011;6418;50.824;4.718;2023-04-22T10:30:08;16.93;;;10.67;;
12707;SDS011;6418;50.824;4.718;2023-04-22T10:32:36;17.53;;;9.63;;
12707;SDS011;6418;50.824;4.718;2023-04-22T10:35:07;14.03;;;9.63;;
12707;SDS011;6418;50.824;4.718;2023-04-22T10:37:36;15.67;;;9.90;;
12707;SDS011;6418;50.824;4.718;2023-04-22T10:40:08;16.93;;;10.87;;
12707;SDS011;6418;50.824;4.718;2023-04-22T10:42:38;16.40;;;10.63;;
12707;SDS011;6418;50.824;4.718;2023-04-22T10:45:09;17.57;;;10.33;;
12707;SDS011;6418;50.824;4.718;2023-04-22T10:47:38;14.87;;;10.63;;
12707;SDS011;6418;50.824;4.718;2023-04-22T10:50:09;15.83;;;10.43;;
12707;SDS011;6418;50.824;4.718;2023-04-22T10:52:38;17.57;;;10.57;;
12707;SDS011;6418;50.824;4.718;2023-04-22T10:55:05;17.57;;;10.70;;
12707;SDS011;6418;50.824;4.718;2023-04-22T10:57:34;17.00;;;11.40;;
12707;SDS011;6418;50.824;4.718;2023-04-22T11:03:11;16.77;;;11.20;;
12707;SDS011;6418;50.824;4.718;2023-04-22T11:05:40;16.93;;;10.90;;
12707;SDS011;6418;50.824;4.718;2023-04-22T11:08:11;16.00;;;11.00;;
12707;SDS011;6418;50.824;4.718;2023-04-22T11:10:41;15.50;;;10.57;;
12707;SDS011;6418;50.824;4.718;2023-04-22T11:13:10;16.83;;;10.60;;
12707;SDS011;6418;50.824;4.718;2023-04-22T11:15:41;16.83;;;10.80;;
12707;SDS011;6418;50.824;4.718;2023-04-22T11:18:10;16.00;;;10.80;;
12707;SDS011;6418;50.824;4.718;2023-04-22T11:20:39;17.17;;;11.30;;
12707;SDS011;6418;50.824;4.718;2023-04-22T11:23:06;15.13;;;9.80;;
12707;SDS011;6418;50.824;4.718;2023-04-22T11:25:33;15.90;;;9.87;;
12707;SDS011;6418;50.824;4.718;2023-04-22T11:28:00;17.13;;;10.33;;
12707;SDS011;6418;50.824;4.718;2023-04-22T11:30:27;16.47;;;9.80;;
12707;SDS011;6418;50.824;4.718;2023-04-22T11:32:58;16.10;;;9.57;;
12707;SDS011;6418;50.824;4.718;2023-04-22T11:35:26;15.73;;;10.30;;
12707;SDS011;6418;50.824;4.718;2023-04-22T11:37:55;15.87;;;10.17;;
12707;SDS011;6418;50.824;4.718;2023-04-22T11:40:25;13.67;;;9.53;;
12707;SDS011;6418;50.824;4.718;2023-04-22T11:42:53;14.63;;;9.80;;
12707;SDS011;6418;50.824;4.718;2023-04-22T11:45:21;15.90;;;9.40;;
12707;SDS011;6418;50.824;4.718;2023-04-22T11:47:49;14.27;;;9.67;;
12707;SDS011;6418;50.824;4.718;2023-04-22T11:50:19;14.73;;;9.70;;
12707;SDS011;6418;50.824;4.718;2023-04-22T11:52:49;14.47;;;9.47;;
12707;SDS011;6418;50.824;4.718;2023-04-22T11:55:19;14.70;;;9.20;;
12707;SDS011;6418;50.824;4.718;2023-04-22T11:57:51;14.37;;;8.97;;
12707;SDS011;6418;50.824;4.718;2023-04-22T12:00:20;13.00;;;8.43;;
12707;SDS011;6418;50.824;4.718;2023-04-22T12:02:55;14.17;;;8.70;;
12707;SDS011;6418;50.824;4.718;2023-04-22T12:08:10;13.33;;;8.63;;
12707;SDS011;6418;50.824;4.718;2023-04-22T12:10:39;15.23;;;8.70;;
12707;SDS011;6418;50.824;4.718;2023-04-22T12:13:07;14.40;;;8.80;;
12707;SDS011;6418;50.824;4.718;2023-04-22T12:15:38;15.83;;;8.57;;
12707;SDS011;6418;50.824;4.718;2023-04-22T12:18:07;13.50;;;8.77;;
12707;SDS011;6418;50.824;4.718;2023-04-22T12:20:34;15.90;;;9.90;;
12707;SDS011;6418;50.824;4.718;2023-04-22T12:23:03;15.20;;;10.17;;
12707;SDS011;6418;50.824;4.718;2023-04-22T12:25:30;17.53;;;11.43;;
12707;SDS011;6418;50.824;4.718;2023-04-22T12:27:58;17.70;;;11.77;;
12707;SDS011;6418;50.824;4.718;2023-04-22T12:30:26;20.87;;;13.07;;
12707;SDS011;6418;50.824;4.718;2023-04-22T12:32:53;18.87;;;13.10;;
12707;SDS011;6418;50.824;4.718;2023-04-22T12:35:20;24.20;;;14.23;;
12707;SDS011;6418;50.824;4.718;2023-04-22T12:37:47;20.03;;;13.00;;
12707;SDS011;6418;50.824;4.718;2023-04-22T12:40:16;20.00;;;13.50;;
12707;SDS011;6418;50.824;4.718;2023-04-22T12:42:43;21.07;;;14.77;;
12707;SDS011;6418;50.824;4.718;2023-04-22T12:45:10;20.07;;;14.43;;
12707;SDS011;6418;50.824;4.718;2023-04-22T12:47:37;21.80;;;14.13;;
12707;SDS011;6418;50.824;4.718;2023-04-22T12:50:05;19.77;;;14.17;;
12707;SDS011;6418;50.824;4.718;2023-04-22T12:52:33;21.83;;;14.43;;
12707;SDS011;6418;50.824;4.718;2023-04-22T12:55:00;19.40;;;13.97;;
12707;SDS011;6418;50.824;4.718;2023-04-22T12:57:30;18.83;;;13.93;;
12707;SDS011;6418;50.824;4.718;2023-04-22T12:59:57;21.60;;;13.97;;
12707;SDS011;6418;50.824;4.718;2023-04-22T13:02:24;19.00;;;13.30;;
12707;SDS011;6418;50.824;4.718;2023-04-22T13:04:51;19.67;;;13.23;;
12707;SDS011;6418;50.824;4.718;2023-04-22T13:07:18;20.73;;;12.93;;
12707;SDS011;6418;50.824;4.718;2023-04-22T13:09:45;17.07;;;10.87;;
12707;SDS011;6418;50.824;4.718;2023-04-22T13:12:12;14.63;;;10.00;;
12707;SDS011;6418;50.824;4.718;2023-04-22T13:14:41;15.10;;;10.20;;
12707;SDS011;6418;50.824;4.718;2023-04-22T13:17:08;13.37;;;9.63;;
12707;SDS011;6418;50.824;4.718;2023-04-22T13:19:35;13.73;;;9.77;;
12707;SDS011;6418;50.824;4.718;2023-04-22T13:22:02;13.10;;;9.10;;
12707;SDS011;6418;50.824;4.718;2023-04-22T13:24:29;12.00;;;8.40;;
12707;SDS011;6418;50.824;4.718;2023-04-22T13:26:56;14.03;;;8.30;;
12707;SDS011;6418;50.824;4.718;2023-04-22T13:29:24;13.93;;;8.37;;
12707;SDS011;6418;50.824;4.718;2023-04-22T13:31:52;13.07;;;8.23;;
12707;SDS011;6418;50.824;4.718;2023-04-22T13:34:19;11.40;;;7.90;;
12707;SDS011;6418;50.824;4.718;2023-04-22T13:36:46;12.27;;;8.37;;
12707;SDS011;6418;50.824;4.718;2023-04-22T13:39:14;11.60;;;7.63;;
12707;SDS011;6418;50.824;4.718;2023-04-22T13:41:42;12.07;;;7.90;;
12707;SDS011;6418;50.824;4.718;2023-04-22T13:44:09;11.83;;;7.17;;
12707;SDS011;6418;50.824;4.718;2023-04-22T13:46:37;12.20;;;7.83;;
12707;SDS011;6418;50.824;4.718;2023-04-22T13:49:05;12.97;;;7.70;;
12707;SDS011;6418;50.824;4.718;2023-04-22T13:51:32;12.83;;;7.70;;
12707;SDS011;6418;50.824;4.718;2023-04-22T13:54:01;12.60;;;7.77;;
12707;SDS011;6418;50.824;4.718;2023-04-22T13:56:29;11.93;;;7.33;;
12707;SDS011;6418;50.824;4.718;2023-04-22T13:58:56;11.43;;;7.13;;
12707;SDS011;6418;50.824;4.718;2023-04-22T14:01:23;12.67;;;7.50;;
12707;SDS011;6418;50.824;4.718;2023-04-22T14:03:50;13.37;;;7.67;;
12707;SDS011;6418;50.824;4.718;2023-04-22T14:06:19;11.53;;;6.90;;
12707;SDS011;6418;50.824;4.718;2023-04-22T14:08:46;13.80;;;8.10;;
12707;SDS011;6418;50.824;4.718;2023-04-22T14:11:13;12.10;;;7.47;;
12707;SDS011;6418;50.824;4.718;2023-04-22T14:13:40;12.40;;;7.50;;
12707;SDS011;6418;50.824;4.718;2023-04-22T14:16:09;12.47;;;7.27;;
12707;SDS011;6418;50.824;4.718;2023-04-22T14:18:37;12.77;;;7.37;;
12707;SDS011;6418;50.824;4.718;2023-04-22T14:21:05;12.40;;;7.60;;
12707;SDS011;6418;50.824;4.718;2023-04-22T14:23:36;13.77;;;7.83;;
12707;SDS011;6418;50.824;4.718;2023-04-22T14:26:04;14.23;;;9.33;;
12707;SDS011;6418;50.824;4.718;2023-04-22T14:28:31;14.50;;;9.23;;
12707;SDS011;6418;50.824;4.718;2023-04-22T14:30:58;11.37;;;6.90;;
12707;SDS011;6418;50.824;4.718;2023-04-22T14:33:26;11.33;;;6.90;;
12707;SDS011;6418;50.824;4.718;2023-04-22T14:35:53;12.30;;;6.67;;
12707;SDS011;6418;50.824;4.718;2023-04-22T14:38:21;10.83;;;6.40;;
12707;SDS011;6418;50.824;4.718;2023-04-22T14:40:50;10.57;;;5.80;;
12707;SDS011;6418;50.824;4.718;2023-04-22T14:43:17;9.10;;;5.10;;
12707;SDS011;6418;50.824;4.718;2023-04-22T14:45:45;11.73;;;6.20;;
12707;SDS011;6418;50.824;4.718;2023-04-22T14:48:12;9.43;;;5.30;;